METAR AND TAF INFORMATION
METAR FOR LSZA
ADDS - METARS form results

(0009 UTC 19 March 2019)
Data provider http://aviationweather.gov/metar/data/
 
METAR text: LSZA 182350Z AUTO VRB01KT CAVOK 03/M02 Q1020
Conditions at: LSZA (LUGANO (PVT/AUT), CH) observed 2350 UTC 18 March 2019
Temperature: 3.0°C (37°F)
Dewpoint: -2.0°C (28°F) [RH = 70%]
Pressure (altimeter): 30.12 inches Hg (1020.0 mb)
Winds: variable direction winds at 1 MPH (1 knots; 0.5 m/s)
Visibility: 6 or more miles (10+ km)
Ceiling: ceiling and visibility are OK
Clouds: unknown
Weather: no significant weather observed at this time

METAR text: LSZA 182320Z AUTO VRB02KT CAVOK 03/M03 Q1020
Conditions at: LSZA (LUGANO (PVT/AUT), CH) observed 2320 UTC 18 March 2019
Temperature: 3.0°C (37°F)
Dewpoint: -3.0°C (27°F) [RH = 65%]
Pressure (altimeter): 30.12 inches Hg (1020.0 mb)
Winds: variable direction winds at 2 MPH (2 knots; 1.0 m/s)
Visibility: 6 or more miles (10+ km)
Ceiling: ceiling and visibility are OK
Clouds: unknown
Weather: no significant weather observed at this time

Forecast for: LSZA (LUGANO (PVT/AUT), CH)
Text: TAF LSZA 181425Z 1815/1824 02010KT CAVOK
Forecast period: 1500 UTC 18 March 2019 to 0000 UTC 19 March 2019
Forecast type: FROM: standard forecast or significant change
Winds: from the NNE (20 degrees) at 12 MPH (10 knots; 5.1 m/s)
Visibility: 6 or more miles 10+ km)
Ceiling: unknown
Clouds: missing
Weather: NSW  (no significant weather)
Text: PROB40 1815/1820 02015G25KT
Forecast period: 1500 to 2000 UTC 18 March 2019
Forecast type: PROBABLE: 40 percent likelihood of the following during this time
Winds: from the NNE (20 degrees) at 17 MPH (15 knots; 7.7 m/s)
gusting to 29 MPH (25 knots; 12.9 m/s)
Visibility: missing
Ceiling: unknown
Clouds: missing
Weather: no significant weather forecast for this period

AIRPORT MAP

RUNWAY INFORMATION
Runway 01 Runway length 4429 ft Runway width 98 ft
Runway elevation 896 ft Runway displaced threshold 361 ft Runway heading 19
Runway 19 Runway length 4429 ft Runway width 98 ft
Runway elevation 915 ft Runway displaced threshold 672 ft Runway heading 199

AIRPORT FREQUENCIES
Type ATIS Name ATIS Frequency 121.175 MHZ
Type GND Name GND Frequency 121.775 MHZ
Type TWR Name TWR Frequency 120.25 MHZ

AIRPORT NEAR NAVIGATION AIDS